Orbital elements of FENGYUN 1C DEB
| Launched | 9 May 1999 |
| Flight ended | – |
| Launch site | Taiyuan Space Center, PRC |
| Owner | People's Republic of China |
| NORAD ID | 30709 |
| Date fetched |
Epoch osculation |
Inc. [°] |
Ecc. | RA asc node [hr] |
Arg Peri. [°] |
Mean anom [°] |
Mean motion [rev/day] |
Abs. mag |
| Date fetched |
Epoch osculation |
Inc. [°] |
Ecc. | RA asc node [hr] |
Arg Peri. [°] |
Mean anom [°] |
Mean motion [rev/day] |
Abs. mag |
| 2026 May 09 17:57 | 2026 May 05 10:24:29 | 99.1546 | 0.00799 | 7.5207 | 220.7553 | 138.7630 | 14.18922 | – |
| 2026 May 08 17:57 | 2026 May 05 10:24:29 | 99.1546 | 0.00799 | 7.5207 | 220.7553 | 138.7630 | 14.18922 | – |
| 2026 May 07 17:58 | 2026 May 05 10:24:29 | 99.1546 | 0.00799 | 7.5207 | 220.7553 | 138.7630 | 14.18922 | – |
| 2026 May 06 17:57 | 2026 May 05 10:24:29 | 99.1546 | 0.00799 | 7.5207 | 220.7553 | 138.7630 | 14.18922 | – |
| 2026 May 05 17:57 | 2026 May 05 10:24:29 | 99.1546 | 0.00799 | 7.5207 | 220.7553 | 138.7630 | 14.18922 | – |
| 2026 May 04 17:57 | 2026 Apr 30 05:10:13 | 99.1538 | 0.00797 | 7.1614 | 235.9552 | 138.7630 | 14.18922 | – |
| 2026 May 03 17:57 | 2026 Apr 30 05:10:13 | 99.1538 | 0.00797 | 7.1614 | 235.9552 | 138.7630 | 14.18922 | – |
| 2026 May 02 17:57 | 2026 Apr 30 05:10:13 | 99.1538 | 0.00797 | 7.1614 | 235.9552 | 138.7630 | 14.18922 | – |
| 2026 May 01 17:56 | 2026 Apr 30 05:10:13 | 99.1538 | 0.00797 | 7.1614 | 235.9552 | 138.7630 | 14.18922 | – |
| 2026 Apr 30 17:56 | 2026 Apr 30 05:10:13 | 99.1538 | 0.00797 | 7.1614 | 235.9552 | 138.7630 | 14.18922 | – |
| 2026 Apr 29 17:57 | 2026 Apr 24 10:23:22 | 99.1549 | 0.00797 | 6.7634 | 252.8588 | 138.7630 | 14.18922 | – |
| 2026 Apr 28 17:56 | 2026 Apr 24 10:23:22 | 99.1549 | 0.00797 | 6.7634 | 252.8588 | 138.7630 | 14.18922 | – |
| 2026 Apr 27 17:58 | 2026 Apr 24 10:23:22 | 99.1549 | 0.00797 | 6.7634 | 252.8588 | 138.7630 | 14.18922 | – |
| 2026 Apr 26 17:58 | 2026 Apr 24 10:23:22 | 99.1549 | 0.00797 | 6.7634 | 252.8588 | 138.7630 | 14.18922 | – |
| 2026 Apr 25 17:58 | 2026 Apr 24 10:23:22 | 99.1549 | 0.00797 | 6.7634 | 252.8588 | 138.7630 | 14.18922 | – |
| 2026 Apr 24 17:59 | 2026 Apr 24 10:23:22 | 99.1549 | 0.00797 | 6.7634 | 252.8588 | 138.7630 | 14.18922 | – |
| 2026 Apr 23 17:57 | 2026 Apr 19 05:08:42 | 99.1549 | 0.00798 | 6.4042 | 268.0386 | 138.7630 | 14.18922 | – |
| 2026 Apr 22 17:57 | 2026 Apr 19 05:08:42 | 99.1549 | 0.00798 | 6.4042 | 268.0386 | 138.7630 | 14.18922 | – |
| 2026 Apr 21 17:57 | 2026 Apr 19 05:08:42 | 99.1549 | 0.00798 | 6.4042 | 268.0386 | 138.7630 | 14.18922 | – |
| 2026 Apr 20 17:57 | 2026 Apr 19 05:08:42 | 99.1549 | 0.00798 | 6.4042 | 268.0386 | 138.7630 | 14.18922 | – |
| 2026 Apr 19 17:58 | 2026 Apr 19 05:08:42 | 99.1549 | 0.00798 | 6.4042 | 268.0386 | 138.7630 | 14.18922 | – |
| 2026 Apr 18 17:56 | 2026 Apr 13 03:35:15 | 99.1540 | 0.00803 | 5.9868 | 285.6827 | 138.7630 | 14.18922 | – |
| 2026 Apr 16 17:57 | 2026 Apr 13 03:35:15 | 99.1540 | 0.00803 | 5.9868 | 285.6827 | 138.7630 | 14.18922 | – |
| 2026 Apr 14 17:57 | 2026 Apr 13 03:35:15 | 99.1540 | 0.00803 | 5.9868 | 285.6827 | 138.7630 | 14.18922 | – |
| 2026 Apr 13 17:57 | 2026 Apr 13 03:35:15 | 99.1540 | 0.00803 | 5.9868 | 285.6827 | 138.7630 | 14.18922 | – |
| 2026 Apr 12 17:57 | 2026 Apr 08 15:15:49 | 99.1548 | 0.00806 | 5.6762 | 298.7143 | 138.7630 | 14.18922 | – |